createdAt,value
2023-01-25T00:00:30.612Z,24.10
2023-01-25T00:02:57.641Z,26.20
2023-01-25T00:05:24.438Z,24.80
2023-01-25T00:07:51.194Z,24.13
2023-01-25T00:10:18.053Z,21.30
2023-01-25T00:12:44.766Z,22.07
2023-01-25T00:15:31.361Z,21.47
2023-01-25T00:18:18.040Z,23.27
2023-01-25T00:21:19.846Z,20.20
2023-01-25T00:24:07.169Z,21.57
2023-01-25T00:26:35.730Z,21.33
2023-01-25T00:29:03.234Z,21.30
2023-01-25T00:31:57.627Z,20.50
2023-01-25T00:34:24.432Z,21.00
2023-01-25T00:37:18.293Z,23.00
2023-01-25T00:39:44.975Z,25.70
2023-01-25T00:42:12.242Z,20.97
2023-01-25T00:44:40.023Z,20.97
2023-01-25T00:47:06.967Z,21.90
2023-01-25T00:49:34.013Z,20.60
2023-01-25T00:52:00.979Z,19.63
2023-01-25T00:54:27.683Z,20.03
2023-01-25T00:56:56.485Z,19.20
2023-01-25T00:59:24.596Z,18.70
2023-01-25T01:01:52.261Z,18.13
2023-01-25T01:04:20.396Z,19.20
2023-01-25T01:06:47.267Z,20.53
2023-01-25T01:09:16.089Z,20.20
2023-01-25T01:11:43.096Z,17.83
2023-01-25T01:14:10.389Z,20.47
2023-01-25T01:16:37.256Z,22.27
2023-01-25T01:19:04.854Z,19.00
2023-01-25T01:21:31.587Z,20.53
2023-01-25T01:23:58.434Z,21.80
2023-01-25T01:26:25.189Z,21.97
2023-01-25T01:28:51.954Z,20.77
2023-01-25T01:31:23.444Z,20.10
2023-01-25T01:33:58.516Z,21.17
2023-01-25T01:36:27.638Z,22.27
2023-01-25T01:38:55.179Z,22.27
2023-01-25T01:41:22.250Z,20.20
2023-01-25T01:43:49.057Z,20.37
2023-01-25T01:46:22.293Z,20.77
2023-01-25T01:49:13.286Z,20.97
2023-01-25T01:51:46.203Z,21.33
2023-01-25T01:54:19.983Z,19.90
2023-01-25T01:57:02.746Z,19.47
2023-01-25T01:59:37.519Z,22.33
2023-01-25T02:02:04.555Z,22.23
2023-01-25T02:04:32.648Z,18.43
2023-01-25T02:07:16.088Z,15.63
2023-01-25T02:09:44.476Z,17.07
2023-01-25T02:12:13.150Z,19.43
2023-01-25T02:14:49.138Z,19.33
2023-01-25T02:17:16.057Z,17.60
2023-01-25T02:20:17.614Z,18.37
2023-01-25T02:22:49.203Z,18.63
2023-01-25T02:25:17.544Z,19.53
2023-01-25T02:27:54.792Z,19.93
2023-01-25T02:30:21.958Z,19.37
2023-01-25T02:32:48.657Z,19.47
2023-01-25T02:35:23.871Z,20.87
2023-01-25T02:37:51.871Z,22.17
2023-01-25T02:40:18.997Z,21.97
2023-01-25T02:42:46.497Z,21.30
2023-01-25T02:45:16.528Z,19.83
2023-01-25T02:47:43.187Z,21.83
2023-01-25T02:50:10.838Z,20.03
2023-01-25T02:52:37.609Z,21.23
2023-01-25T02:55:04.539Z,21.67
2023-01-25T02:57:31.254Z,23.33
2023-01-25T02:59:57.967Z,23.10
2023-01-25T03:02:24.816Z,19.47
2023-01-25T03:04:51.566Z,23.50
2023-01-25T03:07:18.290Z,22.07
2023-01-25T03:09:44.944Z,22.40
2023-01-25T03:12:11.758Z,21.33
2023-01-25T03:14:38.451Z,24.00
2023-01-25T03:17:05.277Z,21.93
2023-01-25T03:19:31.965Z,22.57
2023-01-25T03:21:59.110Z,22.20
2023-01-25T03:24:26.005Z,22.73
2023-01-25T03:27:10.859Z,20.80
2023-01-25T03:29:38.250Z,25.70
2023-01-25T03:32:05.316Z,26.23
2023-01-25T03:34:32.112Z,23.20
2023-01-25T03:36:58.979Z,24.13
2023-01-25T03:39:25.723Z,26.10
2023-01-25T03:41:52.413Z,24.37
2023-01-25T03:44:19.109Z,23.33
2023-01-25T03:46:45.950Z,25.47
2023-01-25T03:49:12.760Z,20.60
2023-01-25T03:51:39.503Z,19.07
2023-01-25T03:54:08.604Z,20.10
2023-01-25T03:56:35.368Z,22.67
2023-01-25T03:59:02.382Z,23.67
2023-01-25T04:01:29.263Z,24.53
2023-01-25T04:03:55.968Z,23.20
2023-01-25T04:06:22.671Z,22.17
2023-01-25T04:08:49.417Z,21.70
2023-01-25T04:11:16.057Z,24.27
2023-01-25T04:13:42.698Z,23.73
2023-01-25T04:16:11.858Z,25.83
2023-01-25T04:18:40.084Z,23.63
2023-01-25T04:21:06.819Z,23.80
2023-01-25T04:23:33.585Z,26.50
2023-01-25T04:26:06.488Z,28.07
2023-01-25T04:28:34.997Z,23.63
2023-01-25T04:31:03.684Z,24.27
2023-01-25T04:33:30.632Z,24.73
2023-01-25T04:35:57.894Z,21.53
2023-01-25T04:38:24.584Z,21.23
2023-01-25T04:40:52.051Z,26.23
2023-01-25T04:43:20.620Z,21.67
2023-01-25T04:45:47.514Z,23.90
2023-01-25T04:48:15.265Z,29.83
2023-01-25T04:50:43.250Z,27.03
2023-01-25T04:53:12.133Z,24.63
2023-01-25T04:55:39.282Z,29.43
2023-01-25T04:58:06.119Z,26.13
2023-01-25T05:00:32.839Z,26.70
2023-01-25T05:02:59.787Z,27.40
2023-01-25T05:05:26.489Z,28.83
2023-01-25T05:07:53.462Z,24.13
2023-01-25T05:10:20.429Z,24.97
2023-01-25T05:12:47.286Z,27.80
2023-01-25T05:15:14.062Z,26.03
2023-01-25T05:17:40.737Z,30.17
2023-01-25T05:20:08.120Z,28.57
2023-01-25T05:22:34.804Z,24.47
2023-01-25T05:25:02.998Z,22.30
2023-01-25T05:27:29.840Z,23.03
2023-01-25T05:29:57.260Z,28.30
2023-01-25T05:32:24.821Z,25.83
2023-01-25T05:34:52.304Z,23.77
2023-01-25T05:37:21.214Z,26.90
2023-01-25T05:39:47.985Z,21.50
2023-01-25T05:42:17.075Z,27.57
2023-01-25T05:44:47.061Z,28.93
2023-01-25T05:47:16.610Z,27.17
2023-01-25T05:49:43.639Z,25.80
2023-01-25T05:52:17.445Z,26.50
2023-01-25T05:54:44.421Z,26.93
2023-01-25T05:57:11.309Z,28.70
2023-01-25T05:59:38.171Z,31.87
2023-01-25T06:02:04.791Z,36.93
2023-01-25T06:04:31.543Z,34.80
2023-01-25T06:06:58.366Z,33.10
2023-01-25T06:09:26.453Z,30.00
2023-01-25T06:11:53.150Z,27.40
2023-01-25T06:14:20.142Z,28.03
2023-01-25T06:16:46.809Z,30.17
2023-01-25T06:19:14.319Z,31.33
2023-01-25T06:21:41.062Z,32.10
2023-01-25T06:24:08.090Z,34.43
2023-01-25T06:26:34.839Z,34.50
2023-01-25T06:29:01.497Z,35.73
2023-01-25T06:31:28.382Z,36.97
2023-01-25T06:33:55.125Z,31.47
2023-01-25T06:36:22.639Z,30.50
2023-01-25T06:38:53.126Z,30.87
2023-01-25T06:41:20.576Z,29.40
2023-01-25T06:43:50.348Z,28.43
2023-01-25T06:46:17.711Z,27.13
2023-01-25T06:48:44.620Z,30.67
2023-01-25T06:51:13.850Z,29.80
2023-01-25T06:53:42.856Z,28.93
2023-01-25T06:56:18.192Z,26.47
2023-01-25T06:58:45.207Z,35.57
2023-01-25T07:01:13.689Z,35.90
2023-01-25T07:03:41.136Z,29.37
2023-01-25T07:06:09.664Z,31.60
2023-01-25T07:08:37.116Z,28.10
2023-01-25T07:11:07.252Z,28.00
2023-01-25T07:13:34.892Z,22.30
2023-01-25T07:16:05.496Z,22.87
2023-01-25T07:18:33.046Z,25.77
2023-01-25T07:21:08.749Z,27.53
2023-01-25T07:23:37.993Z,26.13
2023-01-25T07:26:06.025Z,25.03
2023-01-25T07:28:33.264Z,24.50
2023-01-25T07:31:07.592Z,25.90
2023-01-25T07:33:34.967Z,23.73
2023-01-25T07:36:07.534Z,25.70
2023-01-25T07:38:34.925Z,25.80
2023-01-25T07:41:01.631Z,26.83
2023-01-25T07:43:29.284Z,28.27
2023-01-25T07:46:01.574Z,29.43
2023-01-25T07:48:28.620Z,29.90
2023-01-25T07:51:20.879Z,27.97
2023-01-25T07:53:48.799Z,26.63
2023-01-25T07:56:16.062Z,29.90
2023-01-25T07:58:42.837Z,28.37
2023-01-25T08:01:12.108Z,30.20
2023-01-25T08:03:38.978Z,26.97
2023-01-25T08:06:06.392Z,29.03
2023-01-25T08:08:38.873Z,30.43
2023-01-25T08:11:16.496Z,31.50
2023-01-25T08:13:46.691Z,31.67
2023-01-25T08:16:14.635Z,35.40
2023-01-25T08:18:41.275Z,34.77
2023-01-25T08:21:08.512Z,35.83
2023-01-25T08:23:35.500Z,36.30
2023-01-25T08:26:04.296Z,34.33
2023-01-25T08:28:31.344Z,33.07
2023-01-25T08:31:19.195Z,33.67
2023-01-25T08:33:47.105Z,36.07
2023-01-25T08:36:15.495Z,37.33
2023-01-25T08:38:42.771Z,31.80
2023-01-25T08:41:12.824Z,33.10
2023-01-25T08:43:39.947Z,37.17
2023-01-25T08:46:06.839Z,36.63
2023-01-25T08:48:33.646Z,36.83
2023-01-25T08:51:01.365Z,42.70
2023-01-25T08:53:29.807Z,43.30
2023-01-25T08:55:57.001Z,40.30
2023-01-25T08:58:23.870Z,36.30
2023-01-25T09:00:50.781Z,38.03
2023-01-25T09:03:18.563Z,37.00
2023-01-25T09:05:46.834Z,36.27
2023-01-25T09:08:13.546Z,34.30
2023-01-25T09:10:40.320Z,42.13
2023-01-25T09:13:08.674Z,41.03
2023-01-25T09:15:35.615Z,35.77
2023-01-25T09:18:02.393Z,34.07
2023-01-25T09:20:31.709Z,39.30
2023-01-25T09:23:01.056Z,38.70
2023-01-25T09:25:27.996Z,41.50
2023-01-25T09:27:54.721Z,41.07
2023-01-25T09:30:26.345Z,42.37
2023-01-25T09:32:57.525Z,37.53
2023-01-25T09:35:24.325Z,37.43
2023-01-25T09:37:52.570Z,37.63
2023-01-25T09:40:22.684Z,41.97
2023-01-25T09:42:49.429Z,37.67
2023-01-25T09:45:36.597Z,33.40
2023-01-25T09:48:32.688Z,37.70
2023-01-25T09:51:26.008Z,33.93
2023-01-25T09:53:56.534Z,36.03
2023-01-25T09:56:26.820Z,33.27
2023-01-25T09:59:03.609Z,32.63
2023-01-25T10:01:51.420Z,34.60
2023-01-25T10:04:34.544Z,29.13
2023-01-25T10:07:22.428Z,33.30
2023-01-25T10:10:07.657Z,38.10
2023-01-25T10:12:39.222Z,31.53
2023-01-25T10:15:19.099Z,30.80
2023-01-25T10:17:50.555Z,29.50
2023-01-25T10:20:26.466Z,32.23
2023-01-25T10:23:14.901Z,29.40
2023-01-25T10:25:45.783Z,32.73
2023-01-25T10:28:37.482Z,28.57
2023-01-25T10:31:20.094Z,30.47
2023-01-25T10:33:48.665Z,28.33
2023-01-25T10:36:23.067Z,27.93
2023-01-25T10:38:49.873Z,27.37
2023-01-25T10:41:28.955Z,27.63
2023-01-25T10:44:14.193Z,23.87
2023-01-25T10:46:44.278Z,28.83
2023-01-25T10:49:35.943Z,27.33
2023-01-25T10:52:13.989Z,27.23
2023-01-25T10:54:40.929Z,27.60
2023-01-25T10:57:09.564Z,27.47
2023-01-25T10:59:37.156Z,29.40
2023-01-25T11:02:41.844Z,29.00
2023-01-25T11:05:35.860Z,28.40
2023-01-25T11:08:21.320Z,26.43
2023-01-25T11:10:48.195Z,27.40
2023-01-25T11:13:14.912Z,26.00
2023-01-25T11:15:44.765Z,27.93
2023-01-25T11:18:26.428Z,27.47
2023-01-25T11:21:19.857Z,27.27
2023-01-25T11:24:09.433Z,29.33
2023-01-25T11:26:40.663Z,28.13
2023-01-25T11:29:17.361Z,26.20
2023-01-25T11:31:47.430Z,28.03
2023-01-25T11:34:20.425Z,26.13
2023-01-25T11:36:50.207Z,27.40
2023-01-25T11:39:38.304Z,26.43
2023-01-25T11:42:58.215Z,28.23
2023-01-25T11:45:46.971Z,25.83
2023-01-25T11:48:43.523Z,27.67
2023-01-25T11:51:39.037Z,28.47
2023-01-25T11:54:20.881Z,25.23
2023-01-25T11:57:03.458Z,25.57
2023-01-25T11:59:50.196Z,27.13
2023-01-25T12:02:31.843Z,31.33
2023-01-25T12:05:28.410Z,28.10
2023-01-25T12:07:55.084Z,34.83
2023-01-25T12:10:38.887Z,32.80
2023-01-25T12:13:21.217Z,29.90
2023-01-25T12:15:57.073Z,29.63
2023-01-25T12:19:08.728Z,35.20
2023-01-25T12:22:05.567Z,30.33
2023-01-25T12:24:50.868Z,28.20
2023-01-25T12:27:45.581Z,33.53
2023-01-25T12:30:31.312Z,30.07
2023-01-25T12:33:14.663Z,30.80
2023-01-25T12:36:01.271Z,31.57
2023-01-25T12:38:41.406Z,34.23
2023-01-25T12:41:08.470Z,30.80
2023-01-25T12:44:13.419Z,30.93
2023-01-25T12:46:59.516Z,29.60
2023-01-25T12:49:34.886Z,31.47
2023-01-25T12:52:07.272Z,30.20
2023-01-25T12:54:38.798Z,32.90
2023-01-25T12:57:30.213Z,29.17
2023-01-25T13:00:03.110Z,33.87
2023-01-25T13:02:50.150Z,28.80
2023-01-25T13:05:22.770Z,31.93
2023-01-25T13:08:14.038Z,27.57
2023-01-25T13:10:51.119Z,33.20
2023-01-25T13:13:30.189Z,30.43
2023-01-25T13:15:57.017Z,31.07
2023-01-25T13:18:35.899Z,28.97
2023-01-25T13:21:06.592Z,27.83
2023-01-25T13:23:48.652Z,31.60
2023-01-25T13:26:22.025Z,32.67
2023-01-25T13:28:51.016Z,36.60
2023-01-25T13:31:51.992Z,35.23
2023-01-25T13:34:44.332Z,27.73
2023-01-25T13:37:23.150Z,29.57
2023-01-25T13:39:52.708Z,31.70
2023-01-25T13:42:27.180Z,31.87
2023-01-25T13:44:57.330Z,31.37
2023-01-25T13:47:38.163Z,31.50
2023-01-25T13:50:26.939Z,37.77
2023-01-25T13:53:06.281Z,33.43
2023-01-25T13:55:44.772Z,32.87
2023-01-25T13:58:18.458Z,32.80
2023-01-25T14:01:09.000Z,31.63
2023-01-25T14:03:55.746Z,38.23
2023-01-25T14:06:28.382Z,36.17
2023-01-25T14:08:58.544Z,34.70
2023-01-25T14:11:30.352Z,35.27
2023-01-25T14:14:18.377Z,34.37
2023-01-25T14:16:45.171Z,35.63
2023-01-25T14:19:28.910Z,36.40
2023-01-25T14:22:20.346Z,36.57
2023-01-25T14:25:07.345Z,33.63
2023-01-25T14:27:36.090Z,33.53
2023-01-25T14:30:04.360Z,34.10
2023-01-25T14:32:45.307Z,35.47
2023-01-25T14:35:42.492Z,34.97
2023-01-25T14:38:30.584Z,31.87
2023-01-25T14:41:02.280Z,35.63
2023-01-25T14:43:30.155Z,33.40
2023-01-25T14:45:57.413Z,36.17
2023-01-25T14:48:41.464Z,36.03
2023-01-25T14:51:17.328Z,37.97
2023-01-25T14:53:50.701Z,36.83
2023-01-25T14:56:32.825Z,36.67
2023-01-25T14:59:00.494Z,38.67
2023-01-25T15:01:40.409Z,37.10
2023-01-25T15:04:13.019Z,37.60
2023-01-25T15:06:53.123Z,37.20
2023-01-25T15:10:24.794Z,37.90
2023-01-25T15:13:15.567Z,32.13
2023-01-25T15:15:58.330Z,33.63
2023-01-25T15:18:52.389Z,32.77
2023-01-25T15:21:28.043Z,37.30
2023-01-25T15:23:57.281Z,37.23
2023-01-25T15:26:30.522Z,34.13
2023-01-25T15:28:59.744Z,36.50
2023-01-25T15:31:32.808Z,34.23
2023-01-25T15:34:01.524Z,34.30
2023-01-25T15:36:29.451Z,37.00
2023-01-25T15:38:56.221Z,35.30
2023-01-25T15:41:23.203Z,35.07
2023-01-25T15:43:50.369Z,32.67
2023-01-25T15:46:22.016Z,32.63
2023-01-25T15:48:50.188Z,34.83
2023-01-25T15:51:18.355Z,36.03
2023-01-25T15:53:45.446Z,33.13
2023-01-25T15:56:19.750Z,32.17
2023-01-25T15:58:53.407Z,34.70
2023-01-25T16:01:21.989Z,32.80
2023-01-25T16:03:48.799Z,33.80
2023-01-25T16:06:37.331Z,33.13
2023-01-25T16:09:15.206Z,34.43
2023-01-25T16:11:42.687Z,33.83
2023-01-25T16:14:09.758Z,32.80
2023-01-25T16:16:44.378Z,30.30
2023-01-25T16:19:17.737Z,29.80
2023-01-25T16:21:44.759Z,32.53
2023-01-25T16:24:12.036Z,36.97
2023-01-25T16:26:44.688Z,35.63
2023-01-25T16:29:12.462Z,31.73
2023-01-25T16:31:39.306Z,30.43
2023-01-25T16:34:06.124Z,31.83
2023-01-25T16:36:34.540Z,30.97
2023-01-25T16:39:21.279Z,31.67
2023-01-25T16:41:49.072Z,27.40
2023-01-25T16:44:16.546Z,34.13
2023-01-25T16:46:44.081Z,31.53
2023-01-25T16:49:23.472Z,30.00
2023-01-25T16:51:50.932Z,31.83
2023-01-25T16:54:20.104Z,30.67
2023-01-25T16:56:48.403Z,36.00
2023-01-25T16:59:15.523Z,31.83
2023-01-25T17:01:42.607Z,28.50
2023-01-25T17:04:09.850Z,31.70
2023-01-25T17:06:40.288Z,32.30
2023-01-25T17:09:21.933Z,32.90
2023-01-25T17:11:50.237Z,35.20
2023-01-25T17:14:19.140Z,32.83
2023-01-25T17:16:48.410Z,38.67
2023-01-25T17:19:17.210Z,35.63
2023-01-25T17:21:45.135Z,36.27
2023-01-25T17:24:18.955Z,39.00
2023-01-25T17:26:45.775Z,39.27
2023-01-25T17:29:13.966Z,44.37
2023-01-25T17:31:42.226Z,41.50
2023-01-25T17:34:13.637Z,40.17
2023-01-25T17:36:40.492Z,42.93
2023-01-25T17:39:07.980Z,42.33
2023-01-25T17:41:34.889Z,42.40
2023-01-25T17:44:02.106Z,42.40
2023-01-25T17:46:33.336Z,45.27
2023-01-25T17:49:02.528Z,44.17
2023-01-25T17:51:30.360Z,44.93
2023-01-25T17:53:57.871Z,45.37
2023-01-25T17:56:24.906Z,50.50
2023-01-25T17:58:51.719Z,48.80
2023-01-25T18:01:21.453Z,45.63
2023-01-25T18:03:50.097Z,48.97
2023-01-25T18:06:19.420Z,52.73
2023-01-25T18:08:48.693Z,47.37
2023-01-25T18:11:19.808Z,49.50
2023-01-25T18:13:48.806Z,48.83
2023-01-25T18:16:17.433Z,50.47
2023-01-25T18:18:45.591Z,53.70
2023-01-25T18:21:15.691Z,56.63
2023-01-25T18:23:46.319Z,64.60
2023-01-25T18:26:25.111Z,55.13
2023-01-25T18:28:55.355Z,61.73
2023-01-25T18:31:22.101Z,56.27
2023-01-25T18:33:48.875Z,62.80
2023-01-25T18:36:17.817Z,56.50
2023-01-25T18:38:45.437Z,67.43
2023-01-25T18:41:12.358Z,63.77
2023-01-25T18:43:39.266Z,64.93
2023-01-25T18:46:06.322Z,62.30
2023-01-25T18:48:33.549Z,69.03
2023-01-25T18:51:07.115Z,70.77
2023-01-25T18:53:35.953Z,68.17
2023-01-25T18:56:07.335Z,68.33
2023-01-25T18:58:36.470Z,64.10
2023-01-25T19:01:10.543Z,80.03
2023-01-25T19:03:37.611Z,68.80
2023-01-25T19:06:04.752Z,70.63
2023-01-25T19:08:33.135Z,69.97
2023-01-25T19:11:01.889Z,75.80
2023-01-25T19:13:32.129Z,79.80
2023-01-25T19:16:04.693Z,70.40
2023-01-25T19:18:34.193Z,85.23
2023-01-25T19:21:01.384Z,87.30
2023-01-25T19:23:34.088Z,80.67
2023-01-25T19:26:00.909Z,84.50
2023-01-25T19:28:28.466Z,85.30
2023-01-25T19:30:55.966Z,86.40
2023-01-25T19:33:22.883Z,74.87
2023-01-25T19:35:49.653Z,80.60
2023-01-25T19:38:16.401Z,78.47
2023-01-25T19:40:43.571Z,89.23
2023-01-25T19:43:10.610Z,83.57
2023-01-25T19:45:37.385Z,84.13
2023-01-25T19:48:07.155Z,83.97
2023-01-25T19:50:34.618Z,85.43
2023-01-25T19:53:04.438Z,88.37
2023-01-25T19:55:32.180Z,84.10
2023-01-25T19:57:59.708Z,90.10
2023-01-25T20:00:28.420Z,90.67
2023-01-25T20:03:07.247Z,89.63
2023-01-25T20:05:42.180Z,85.07
2023-01-25T20:08:09.535Z,87.97
2023-01-25T20:10:36.500Z,80.47
2023-01-25T20:13:03.573Z,91.37
2023-01-25T20:15:30.468Z,78.27
2023-01-25T20:17:57.428Z,90.10
2023-01-25T20:20:24.153Z,76.83
2023-01-25T20:22:53.312Z,87.13
2023-01-25T20:25:20.130Z,86.07
2023-01-25T20:27:46.868Z,85.87
2023-01-25T20:30:13.579Z,85.00
2023-01-25T20:32:41.486Z,86.33
2023-01-25T20:35:09.245Z,79.53
2023-01-25T20:37:36.067Z,81.53
2023-01-25T20:40:02.750Z,85.67
2023-01-25T20:42:29.472Z,87.37
2023-01-25T20:44:56.323Z,83.33
2023-01-25T20:47:23.297Z,85.83
2023-01-25T20:49:50.351Z,91.13
2023-01-25T20:52:17.120Z,84.90
2023-01-25T20:54:43.946Z,92.20
2023-01-25T20:57:10.702Z,91.20
2023-01-25T20:59:37.557Z,90.93
2023-01-25T21:02:07.016Z,86.60
2023-01-25T21:04:33.922Z,88.03
2023-01-25T21:07:00.991Z,81.77
2023-01-25T21:09:28.336Z,92.33
2023-01-25T21:11:55.483Z,91.97
2023-01-25T21:14:22.441Z,90.73
2023-01-25T21:16:49.169Z,90.10
2023-01-25T21:19:15.824Z,93.27
2023-01-25T21:21:42.527Z,93.23
2023-01-25T21:24:09.380Z,92.97
2023-01-25T21:26:38.231Z,96.37
2023-01-25T21:29:06.337Z,90.73
2023-01-25T21:31:36.560Z,89.67
2023-01-25T21:34:05.241Z,96.30
2023-01-25T21:36:33.058Z,94.60
2023-01-25T21:39:01.047Z,96.37
2023-01-25T21:41:32.212Z,92.40
2023-01-25T21:44:18.988Z,91.67
2023-01-25T21:47:12.414Z,86.97
2023-01-25T21:49:53.173Z,87.00
2023-01-25T21:52:20.300Z,82.10
2023-01-25T21:54:48.176Z,83.67
2023-01-25T21:57:15.002Z,79.80
2023-01-25T21:59:41.638Z,86.87
2023-01-25T22:02:14.080Z,89.70
2023-01-25T22:04:41.016Z,87.30
2023-01-25T22:07:09.016Z,89.83
2023-01-25T22:09:36.311Z,86.90
2023-01-25T22:12:03.032Z,84.17
2023-01-25T22:14:29.852Z,84.80
2023-01-25T22:16:56.642Z,84.27
2023-01-25T22:19:23.453Z,91.00
2023-01-25T22:21:50.125Z,99.80
2023-01-25T22:24:17.333Z,87.93
2023-01-25T22:26:52.923Z,94.27
2023-01-25T22:29:20.234Z,98.90
2023-01-25T22:31:47.216Z,91.30
2023-01-25T22:34:13.934Z,95.50
2023-01-25T22:36:40.713Z,95.43
2023-01-25T22:39:07.852Z,100.30
2023-01-25T22:41:37.765Z,99.70
2023-01-25T22:44:04.935Z,111.00
2023-01-25T22:46:31.688Z,106.87
2023-01-25T22:49:01.407Z,106.90
2023-01-25T22:51:30.629Z,102.37
2023-01-25T22:54:00.710Z,102.83
2023-01-25T22:56:30.287Z,93.60
2023-01-25T22:58:57.802Z,96.90
2023-01-25T23:01:30.885Z,99.27
2023-01-25T23:03:57.959Z,101.13
2023-01-25T23:06:31.067Z,115.90
2023-01-25T23:09:00.037Z,105.77
2023-01-25T23:11:32.379Z,107.37
2023-01-25T23:14:18.163Z,109.67
2023-01-25T23:16:44.835Z,119.20
2023-01-25T23:19:11.922Z,112.70
2023-01-25T23:21:39.031Z,111.97
2023-01-25T23:24:06.161Z,110.67
2023-01-25T23:26:37.707Z,122.67
2023-01-25T23:29:09.351Z,120.70
2023-01-25T23:31:36.790Z,123.43
2023-01-25T23:34:05.882Z,114.30
2023-01-25T23:36:35.490Z,113.77
2023-01-25T23:39:03.129Z,115.37
2023-01-25T23:41:31.115Z,114.53
2023-01-25T23:43:58.378Z,119.60
2023-01-25T23:46:25.701Z,120.20
2023-01-25T23:48:52.689Z,119.40
2023-01-25T23:51:20.408Z,121.13
2023-01-25T23:53:47.777Z,131.10
2023-01-25T23:56:20.634Z,112.87
2023-01-25T23:58:48.223Z,121.17
